This is the latest recevied weather packets stored in our database for station/object N4DBJ. If no packets are shown the sender has not sent any weather packets the latest 10 day(s).
| Time | Temp. | Humidity | Pressure | Rain* | Wind** | Luminosity | Snow |
|---|---|---|---|---|---|---|---|
| 1777663050 | 18.89° C | 54% | 1013.3 hPa | 0 mm | - | 630 W/m² | - |
| 1777662748 | 18.89° C | 47% | 1013.4 hPa | 0 mm | - | 564 W/m² | - |
| 1777662444 | 19.44° C | 46% | 1013.3 hPa | 0 mm | - | 603 W/m² | - |
| 1777662139 | 18.89° C | 54% | 1013.4 hPa | 0 mm | - | 724 W/m² | - |
| 1777661836 | 19.44° C | 50% | 1013.3 hPa | 0 mm | - | 262 W/m² | - |
| 1777661532 | 18.89° C | 55% | 1013.4 hPa | 0 mm | - | 730 W/m² | - |
| 1777661228 | 18.89° C | 49% | 1013.4 hPa | 0 mm | - | 653 W/m² | - |
| 1777660923 | 18.33° C | 54% | 1013.4 hPa | 0 mm | - | 684 W/m² | - |
| 1777660619 | 18.33° C | 53% | 1013.5 hPa | 0 mm | - | 724 W/m² | - |
| 1777660316 | 17.78° C | 59% | 1013.5 hPa | 0 mm | - | 774 W/m² | - |
| 1777660013 | 18.89° C | 54% | 1013.3 hPa | 0 mm | - | 291 W/m² | - |
| 1777659709 | 18.89° C | 55% | 1013.3 hPa | 0 mm | - | 763 W/m² | - |
| 1777659407 | 18.33° C | 52% | 1013.2 hPa | 0 mm | - | 571 W/m² | - |
| 1777659104 | 18.33° C | 53% | 1013.4 hPa | 0 mm | - | 717 W/m² | - |
| 1777658802 | 18.89° C | 48% | 1013.3 hPa | 0 mm | - | 755 W/m² | - |
| 1777658497 | 18.89° C | 49% | 1013.2 hPa | 0 mm | - | 683 W/m² | - |
| 1777658194 | 18.33° C | 56% | 1013.5 hPa | 0 mm | - | 718 W/m² | - |
| 1777657892 | 18.89° C | 57% | 1013.3 hPa | 0 mm | - | 752 W/m² | - |
| 1777657588 | 18.89° C | 53% | 1013.4 hPa | 0 mm | - | 764 W/m² | - |
| 1777657286 | 18.33° C | 55% | 1013.5 hPa | 0 mm | - | 728 W/m² | - |
| 1777656983 | 17.78° C | 51% | 1013.5 hPa | 0 mm | - | 753 W/m² | - |
| 1777656680 | 18.33° C | 50% | 1013.3 hPa | 0 mm | - | 737 W/m² | - |
| 1777656375 | 18.33° C | 57% | 1013.6 hPa | 0 mm | - | 765 W/m² | - |
| 1777656071 | 18.33° C | 57% | 1013.6 hPa | 0 mm | - | 726 W/m² | - |
| 1777655767 | 18.89° C | 54% | 1013.6 hPa | 0 mm | - | 717 W/m² | - |
* Rain latest hour (hover to see other rain measurements)
** Current wind speed in m/s (hover to see current wind gust speed)